Terminal Aerodrome Forecast
Issued by NWS

Home | Current Version | Previous Version | Text Only | Print | Product List | Glossary On
Versions: 1 2 3 4 5 6 7 8 9 10 11 12 13 14 15 16 17 18 19 20 21 22 23 24 25 26 27 28 29 30 31 32 33 34 35 36 37 38 39 40 41 42 43
000
FTUS42 KRAH 040645 AAA
TAFRWI
TAF AMD
KRWI 040645Z 0407/0506 23010KT P6SM SCT015
      TEMPO 0407/0409 6SM BR BKN007 OVC015
     FM041400 24016G24KT P6SM SCT045 BKN120 PROB30 0417/0421
      VRB15G30KT 5SM -TSRA SCT020 BKN035CB=

USA.gov is the U.S. government's official web portal to all federal, state and local government web resources and services.